sensor_id;sensor_type;location;lat;lon;timestamp;pressure;altitude;pressure_sealevel;temperature;humidity
58690;BME280;44470;53.206;-6.106;2022-12-29T00:02:10;98616.38;;;21.97;46.87
58690;BME280;44470;53.206;-6.106;2022-12-29T00:04:36;98605.22;;;21.90;46.76
58690;BME280;44470;53.206;-6.106;2022-12-29T00:07:01;98606.34;;;21.86;46.73
58690;BME280;44470;53.206;-6.106;2022-12-29T00:09:30;98619.56;;;21.89;46.84
58690;BME280;44470;53.206;-6.106;2022-12-29T00:11:56;98623.38;;;21.85;47.16
58690;BME280;44470;53.206;-6.106;2022-12-29T00:14:22;98623.66;;;21.66;47.03
58690;BME280;44470;53.206;-6.106;2022-12-29T00:17:06;98633.06;;;21.57;47.88
58690;BME280;44470;53.206;-6.106;2022-12-29T00:19:32;98645.66;;;21.55;48.29
58690;BME280;44470;53.206;-6.106;2022-12-29T00:22:16;98656.16;;;21.44;48.91
58690;BME280;44470;53.206;-6.106;2022-12-29T00:25:00;98650.00;;;21.58;48.29
58690;BME280;44470;53.206;-6.106;2022-12-29T00:27:44;98655.03;;;21.62;48.09
58690;BME280;44470;53.206;-6.106;2022-12-29T00:30:30;98665.41;;;21.69;47.98
58690;BME280;44470;53.206;-6.106;2022-12-29T00:33:16;98676.81;;;21.56;48.45
58690;BME280;44470;53.206;-6.106;2022-12-29T00:36:08;98681.38;;;21.40;48.92
58690;BME280;44470;53.206;-6.106;2022-12-29T00:38:39;98684.00;;;21.56;48.21
58690;BME280;44470;53.206;-6.106;2022-12-29T00:41:25;98693.56;;;21.76;47.56
58690;BME280;44470;53.206;-6.106;2022-12-29T00:44:11;98683.31;;;21.83;47.16
58690;BME280;44470;53.206;-6.106;2022-12-29T00:46:38;98687.84;;;21.82;47.09
58690;BME280;44470;53.206;-6.106;2022-12-29T00:49:05;98689.00;;;21.92;46.84
58690;BME280;44470;53.206;-6.106;2022-12-29T00:51:50;98699.91;;;21.89;47.14
58690;BME280;44470;53.206;-6.106;2022-12-29T00:54:16;98698.84;;;21.92;46.65
58690;BME280;44470;53.206;-6.106;2022-12-29T00:56:41;98702.66;;;21.88;46.64
58690;BME280;44470;53.206;-6.106;2022-12-29T00:59:09;98702.00;;;21.84;46.91
58690;BME280;44470;53.206;-6.106;2022-12-29T01:01:36;98716.03;;;21.88;46.87
58690;BME280;44470;53.206;-6.106;2022-12-29T01:07:49;98717.88;;;21.87;46.66
58690;BME280;44470;53.206;-6.106;2022-12-29T01:10:14;98707.25;;;21.86;46.85
58690;BME280;44470;53.206;-6.106;2022-12-29T01:12:40;98701.94;;;21.70;46.97
58690;BME280;44470;53.206;-6.106;2022-12-29T01:15:09;98729.91;;;21.80;46.84
58690;BME280;44470;53.206;-6.106;2022-12-29T01:17:34;98727.91;;;21.84;46.88
58690;BME280;44470;53.206;-6.106;2022-12-29T01:20:01;98733.25;;;21.84;46.73
58690;BME280;44470;53.206;-6.106;2022-12-29T01:22:27;98746.75;;;21.82;46.71
58690;BME280;44470;53.206;-6.106;2022-12-29T01:24:54;98738.34;;;21.88;46.92
58690;BME280;44470;53.206;-6.106;2022-12-29T01:27:19;98736.81;;;21.84;46.58
58690;BME280;44470;53.206;-6.106;2022-12-29T01:29:45;98750.78;;;21.89;46.57
58690;BME280;44470;53.206;-6.106;2022-12-29T01:32:10;98764.16;;;21.89;46.77
58690;BME280;44470;53.206;-6.106;2022-12-29T01:34:37;98749.59;;;21.79;46.92
58690;BME280;44470;53.206;-6.106;2022-12-29T01:37:03;98764.34;;;21.86;46.54
58690;BME280;44470;53.206;-6.106;2022-12-29T01:39:28;98765.31;;;21.85;46.66
58690;BME280;44470;53.206;-6.106;2022-12-29T01:41:54;98777.63;;;21.88;46.86
58690;BME280;44470;53.206;-6.106;2022-12-29T01:47:22;98777.34;;;21.78;46.89
58690;BME280;44470;53.206;-6.106;2022-12-29T01:49:53;98790.38;;;21.84;47.06
58690;BME280;44470;53.206;-6.106;2022-12-29T01:52:19;98775.78;;;21.74;47.01
58690;BME280;44470;53.206;-6.106;2022-12-29T01:54:50;98799.94;;;21.88;46.71
58690;BME280;44470;53.206;-6.106;2022-12-29T01:57:20;98807.22;;;21.86;46.99
58690;BME280;44470;53.206;-6.106;2022-12-29T01:59:55;98796.56;;;21.85;47.05
58690;BME280;44470;53.206;-6.106;2022-12-29T02:02:24;98806.44;;;21.84;47.04
58690;BME280;44470;53.206;-6.106;2022-12-29T02:04:51;98814.47;;;21.84;47.16
58690;BME280;44470;53.206;-6.106;2022-12-29T02:07:21;98812.75;;;21.83;46.90
58690;BME280;44470;53.206;-6.106;2022-12-29T02:09:48;98823.44;;;21.83;46.93
58690;BME280;44470;53.206;-6.106;2022-12-29T02:12:16;98834.84;;;21.87;46.92
58690;BME280;44470;53.206;-6.106;2022-12-29T02:14:43;98832.25;;;21.85;46.79
58690;BME280;44470;53.206;-6.106;2022-12-29T02:31:28;98866.91;;;21.88;46.64
58690;BME280;44470;53.206;-6.106;2022-12-29T02:37:06;98858.25;;;21.83;46.80
58690;BME280;44470;53.206;-6.106;2022-12-29T02:39:51;98874.16;;;21.86;47.01
58690;BME280;44470;53.206;-6.106;2022-12-29T02:45:15;98881.41;;;21.84;46.70
58690;BME280;44470;53.206;-6.106;2022-12-29T02:47:51;98890.03;;;21.89;46.53
58690;BME280;44470;53.206;-6.106;2022-12-29T02:53:05;98900.66;;;21.91;46.76
58690;BME280;44470;53.206;-6.106;2022-12-29T02:55:55;98904.47;;;21.87;46.79
58690;BME280;44470;53.206;-6.106;2022-12-29T02:58:24;98918.63;;;21.89;46.98
58690;BME280;44470;53.206;-6.106;2022-12-29T03:03:46;98931.16;;;21.88;46.75
58690;BME280;44470;53.206;-6.106;2022-12-29T03:17:58;98944.38;;;21.75;47.02
58690;BME280;44470;53.206;-6.106;2022-12-29T03:20:37;98939.38;;;21.85;46.73
58690;BME280;44470;53.206;-6.106;2022-12-29T03:23:05;98956.28;;;21.86;46.86
58690;BME280;44470;53.206;-6.106;2022-12-29T03:25:39;98944.38;;;21.91;46.60
58690;BME280;44470;53.206;-6.106;2022-12-29T03:28:12;98969.44;;;21.90;46.39
58690;BME280;44470;53.206;-6.106;2022-12-29T03:30:43;98976.34;;;21.95;46.76
58690;BME280;44470;53.206;-6.106;2022-12-29T03:33:16;98964.88;;;21.92;46.52
58690;BME280;44470;53.206;-6.106;2022-12-29T03:35:44;98956.41;;;21.84;46.64
58690;BME280;44470;53.206;-6.106;2022-12-29T03:40:48;98967.78;;;21.88;46.52
58690;BME280;44470;53.206;-6.106;2022-12-29T03:43:16;98984.03;;;21.85;46.62
58690;BME280;44470;53.206;-6.106;2022-12-29T03:45:43;99002.88;;;21.83;46.78
58690;BME280;44470;53.206;-6.106;2022-12-29T03:48:09;99000.38;;;21.80;47.16
58690;BME280;44470;53.206;-6.106;2022-12-29T03:50:37;98995.44;;;21.88;46.96
58690;BME280;44470;53.206;-6.106;2022-12-29T03:53:03;98998.13;;;21.88;46.77
58690;BME280;44470;53.206;-6.106;2022-12-29T03:55:29;99007.09;;;21.87;46.79
58690;BME280;44470;53.206;-6.106;2022-12-29T03:57:55;99012.47;;;21.87;46.91
58690;BME280;44470;53.206;-6.106;2022-12-29T04:00:32;99018.00;;;21.84;46.85
58690;BME280;44470;53.206;-6.106;2022-12-29T04:02:58;98995.00;;;21.80;46.62
58690;BME280;44470;53.206;-6.106;2022-12-29T04:05:23;99013.59;;;21.83;46.90
58690;BME280;44470;53.206;-6.106;2022-12-29T04:07:52;99007.09;;;21.87;46.67
58690;BME280;44470;53.206;-6.106;2022-12-29T04:10:24;99011.59;;;21.87;46.58
58690;BME280;44470;53.206;-6.106;2022-12-29T04:12:53;99022.28;;;21.87;46.86
58690;BME280;44470;53.206;-6.106;2022-12-29T04:15:18;99021.44;;;21.86;46.69
58690;BME280;44470;53.206;-6.106;2022-12-29T04:17:44;99032.94;;;21.88;46.51
58690;BME280;44470;53.206;-6.106;2022-12-29T04:20:11;99019.91;;;21.82;46.89
58690;BME280;44470;53.206;-6.106;2022-12-29T04:22:59;99033.00;;;21.87;46.62
58690;BME280;44470;53.206;-6.106;2022-12-29T04:25:25;99018.66;;;21.88;46.97
58690;BME280;44470;53.206;-6.106;2022-12-29T04:27:51;99027.59;;;21.88;46.62
58690;BME280;44470;53.206;-6.106;2022-12-29T04:30:35;99032.16;;;21.86;46.58
58690;BME280;44470;53.206;-6.106;2022-12-29T04:33:19;99023.84;;;21.91;46.48
58690;BME280;44470;53.206;-6.106;2022-12-29T04:35:45;99033.88;;;21.87;46.63
58690;BME280;44470;53.206;-6.106;2022-12-29T04:38:12;99031.22;;;21.87;46.87
58690;BME280;44470;53.206;-6.106;2022-12-29T04:40:39;99039.25;;;21.87;46.88
58690;BME280;44470;53.206;-6.106;2022-12-29T04:43:06;99038.19;;;21.90;46.91
58690;BME280;44470;53.206;-6.106;2022-12-29T04:45:42;99047.88;;;21.92;46.84
58690;BME280;44470;53.206;-6.106;2022-12-29T04:48:21;99056.44;;;21.83;46.66
58690;BME280;44470;53.206;-6.106;2022-12-29T04:51:12;99060.75;;;21.86;46.59
58690;BME280;44470;53.206;-6.106;2022-12-29T04:53:38;99044.59;;;21.87;46.73
58690;BME280;44470;53.206;-6.106;2022-12-29T04:56:04;99054.72;;;21.82;46.66
58690;BME280;44470;53.206;-6.106;2022-12-29T04:58:30;99051.84;;;21.85;46.91
58690;BME280;44470;53.206;-6.106;2022-12-29T05:00:57;99048.22;;;21.86;46.48
58690;BME280;44470;53.206;-6.106;2022-12-29T05:03:25;99025.41;;;21.79;46.76
58690;BME280;44470;53.206;-6.106;2022-12-29T05:05:54;99042.88;;;21.86;46.81
58690;BME280;44470;53.206;-6.106;2022-12-29T05:08:21;99054.19;;;21.91;46.75
58690;BME280;44470;53.206;-6.106;2022-12-29T05:10:47;99032.66;;;21.77;46.43
58690;BME280;44470;53.206;-6.106;2022-12-29T05:13:14;99049.84;;;21.89;46.74
58690;BME280;44470;53.206;-6.106;2022-12-29T05:15:39;99064.13;;;21.89;46.43
58690;BME280;44470;53.206;-6.106;2022-12-29T05:18:05;99053.94;;;21.80;46.41
58690;BME280;44470;53.206;-6.106;2022-12-29T05:20:30;99054.72;;;21.82;46.68
58690;BME280;44470;53.206;-6.106;2022-12-29T05:22:56;99065.31;;;21.84;46.72
58690;BME280;44470;53.206;-6.106;2022-12-29T05:25:22;99057.91;;;21.89;46.57
58690;BME280;44470;53.206;-6.106;2022-12-29T05:27:56;99063.84;;;21.94;46.39
58690;BME280;44470;53.206;-6.106;2022-12-29T05:30:42;99046.34;;;21.88;46.40
58690;BME280;44470;53.206;-6.106;2022-12-29T05:33:08;99055.50;;;21.84;46.36
58690;BME280;44470;53.206;-6.106;2022-12-29T05:35:36;99053.59;;;21.86;46.44
58690;BME280;44470;53.206;-6.106;2022-12-29T05:38:02;99062.41;;;21.88;46.55
58690;BME280;44470;53.206;-6.106;2022-12-29T05:40:27;99060.50;;;21.90;46.56
58690;BME280;44470;53.206;-6.106;2022-12-29T05:42:56;99048.47;;;21.82;46.43
58690;BME280;44470;53.206;-6.106;2022-12-29T05:46:00;99062.22;;;21.91;46.35
58690;BME280;44470;53.206;-6.106;2022-12-29T05:48:44;99061.13;;;21.96;46.46
58690;BME280;44470;53.206;-6.106;2022-12-29T05:51:16;99063.06;;;21.92;46.38
58690;BME280;44470;53.206;-6.106;2022-12-29T05:53:47;99034.22;;;21.81;46.61
58690;BME280;44470;53.206;-6.106;2022-12-29T05:56:12;99048.84;;;21.91;46.60
58690;BME280;44470;53.206;-6.106;2022-12-29T05:58:39;99047.44;;;21.84;46.25
58690;BME280;44470;53.206;-6.106;2022-12-29T06:01:05;99047.28;;;21.87;46.33
58690;BME280;44470;53.206;-6.106;2022-12-29T06:03:30;99067.75;;;21.88;46.51
58690;BME280;44470;53.206;-6.106;2022-12-29T06:05:56;99058.00;;;21.87;46.46
58690;BME280;44470;53.206;-6.106;2022-12-29T06:08:21;99053.59;;;21.86;46.61
58690;BME280;44470;53.206;-6.106;2022-12-29T06:10:47;99055.16;;;21.90;46.26
58690;BME280;44470;53.206;-6.106;2022-12-29T06:13:13;99039.06;;;21.90;46.47
58690;BME280;44470;53.206;-6.106;2022-12-29T06:15:41;99040.81;;;21.91;46.33
58690;BME280;44470;53.206;-6.106;2022-12-29T06:18:08;99038.03;;;21.93;46.33
58690;BME280;44470;53.206;-6.106;2022-12-29T06:20:33;99050.75;;;21.89;46.32
58690;BME280;44470;53.206;-6.106;2022-12-29T06:23:01;99040.81;;;21.91;46.58
58690;BME280;44470;53.206;-6.106;2022-12-29T06:25:27;99029.38;;;21.88;46.34
58690;BME280;44470;53.206;-6.106;2022-12-29T06:27:53;99043.38;;;21.93;46.12
58690;BME280;44470;53.206;-6.106;2022-12-29T06:30:19;99050.75;;;21.89;46.29
58690;BME280;44470;53.206;-6.106;2022-12-29T06:32:44;99054.03;;;21.95;46.23
58690;BME280;44470;53.206;-6.106;2022-12-29T06:35:11;99047.00;;;21.92;46.33
58690;BME280;44470;53.206;-6.106;2022-12-29T06:37:41;99056.88;;;21.91;46.12
58690;BME280;44470;53.206;-6.106;2022-12-29T06:40:07;99072.06;;;21.91;46.27
58690;BME280;44470;53.206;-6.106;2022-12-29T06:42:49;99016.94;;;21.87;45.86
58690;BME280;44470;53.206;-6.106;2022-12-29T06:45:32;99050.31;;;21.81;46.46
58690;BME280;44470;53.206;-6.106;2022-12-29T06:47:57;99038.03;;;21.77;46.27
58690;BME280;44470;53.206;-6.106;2022-12-29T06:50:23;99054.03;;;21.95;46.15
58690;BME280;44470;53.206;-6.106;2022-12-29T06:52:48;99052.19;;;21.95;45.89
58690;BME280;44470;53.206;-6.106;2022-12-29T06:55:14;99054.88;;;21.95;46.03
58690;BME280;44470;53.206;-6.106;2022-12-29T06:57:39;99031.81;;;21.92;46.06
58690;BME280;44470;53.206;-6.106;2022-12-29T07:00:06;99037.34;;;21.89;46.05
58690;BME280;44470;53.206;-6.106;2022-12-29T07:02:31;99063.78;;;21.96;46.14
58690;BME280;44470;53.206;-6.106;2022-12-29T07:04:57;99054.81;;;21.97;46.09
58690;BME280;44470;53.206;-6.106;2022-12-29T07:07:22;99062.22;;;21.91;46.09
58690;BME280;44470;53.206;-6.106;2022-12-29T07:09:48;99056.00;;;21.91;45.89
58690;BME280;44470;53.206;-6.106;2022-12-29T07:12:13;99073.13;;;21.88;46.01
58690;BME280;44470;53.206;-6.106;2022-12-29T07:14:39;99064.31;;;21.86;46.19
58690;BME280;44470;53.206;-6.106;2022-12-29T07:17:05;99062.06;;;21.95;45.93
58690;BME280;44470;53.206;-6.106;2022-12-29T07:19:32;99081.75;;;21.94;46.10
58690;BME280;44470;53.206;-6.106;2022-12-29T07:21:58;99080.19;;;21.89;45.97
58690;BME280;44470;53.206;-6.106;2022-12-29T07:24:24;99087.13;;;21.94;46.13
58690;BME280;44470;53.206;-6.106;2022-12-29T07:26:51;99075.44;;;21.95;45.86
58690;BME280;44470;53.206;-6.106;2022-12-29T07:29:17;99066.53;;;21.94;45.95
58690;BME280;44470;53.206;-6.106;2022-12-29T07:31:42;99063.97;;;21.92;45.83
58690;BME280;44470;53.206;-6.106;2022-12-29T07:34:08;99054.19;;;21.91;46.06
58690;BME280;44470;53.206;-6.106;2022-12-29T07:36:34;99076.41;;;21.94;45.88
58690;BME280;44470;53.206;-6.106;2022-12-29T07:38:59;99058.78;;;21.89;46.11
58690;BME280;44470;53.206;-6.106;2022-12-29T07:41:24;99075.97;;;21.85;46.07
58690;BME280;44470;53.206;-6.106;2022-12-29T07:43:50;99078.81;;;21.98;46.05
58690;BME280;44470;53.206;-6.106;2022-12-29T07:46:34;99081.66;;;21.95;46.18
58690;BME280;44470;53.206;-6.106;2022-12-29T07:48:59;99094.53;;;21.88;46.13
58690;BME280;44470;53.206;-6.106;2022-12-29T07:51:25;99113.13;;;21.91;45.72
58690;BME280;44470;53.206;-6.106;2022-12-29T07:53:50;99073.97;;;21.89;45.97
58690;BME280;44470;53.206;-6.106;2022-12-29T07:56:16;99104.91;;;21.95;45.94
58690;BME280;44470;53.206;-6.106;2022-12-29T07:58:41;99081.75;;;21.94;45.96
58690;BME280;44470;53.206;-6.106;2022-12-29T08:01:07;99094.28;;;21.93;45.81
58690;BME280;44470;53.206;-6.106;2022-12-29T08:03:32;99088.22;;;21.89;45.64
58690;BME280;44470;53.206;-6.106;2022-12-29T08:05:58;99105.75;;;21.95;45.51
58690;BME280;44470;53.206;-6.106;2022-12-29T08:08:23;99102.66;;;21.87;45.93
58690;BME280;44470;53.206;-6.106;2022-12-29T08:10:49;99109.50;;;21.92;45.71
58690;BME280;44470;53.206;-6.106;2022-12-29T08:13:14;99118.66;;;21.88;46.14
58690;BME280;44470;53.206;-6.106;2022-12-29T08:15:40;99114.41;;;21.84;45.88
58690;BME280;44470;53.206;-6.106;2022-12-29T08:18:05;99117.44;;;21.94;45.83
58690;BME280;44470;53.206;-6.106;2022-12-29T08:20:31;99131.88;;;21.91;46.03
58690;BME280;44470;53.206;-6.106;2022-12-29T08:22:57;99137.41;;;21.88;45.73
58690;BME280;44470;53.206;-6.106;2022-12-29T08:25:22;99107.75;;;21.91;45.81
58690;BME280;44470;53.206;-6.106;2022-12-29T08:27:48;99108.72;;;21.90;45.63
58690;BME280;44470;53.206;-6.106;2022-12-29T08:30:13;99137.84;;;21.97;45.67
58690;BME280;44470;53.206;-6.106;2022-12-29T08:32:39;99159.50;;;21.92;45.52
58690;BME280;44470;53.206;-6.106;2022-12-29T08:35:05;99151.97;;;21.83;45.71
58690;BME280;44470;53.206;-6.106;2022-12-29T08:37:32;99154.47;;;21.86;45.91
58690;BME280;44470;53.206;-6.106;2022-12-29T08:39:58;99163.69;;;21.98;45.52
58690;BME280;44470;53.206;-6.106;2022-12-29T08:42:25;99139.47;;;21.99;45.65
58690;BME280;44470;53.206;-6.106;2022-12-29T08:44:56;99146.03;;;21.94;45.48
58690;BME280;44470;53.206;-6.106;2022-12-29T08:47:22;99152.97;;;21.98;45.57
58690;BME280;44470;53.206;-6.106;2022-12-29T08:49:48;99151.41;;;21.94;45.74
58690;BME280;44470;53.206;-6.106;2022-12-29T08:52:14;99152.00;;;21.99;45.37
58690;BME280;44470;53.206;-6.106;2022-12-29T08:54:39;99146.44;;;22.03;45.13
58690;BME280;44470;53.206;-6.106;2022-12-29T08:57:05;99144.84;;;21.99;45.52
58690;BME280;44470;53.206;-6.106;2022-12-29T08:59:43;99159.03;;;22.01;45.51
58690;BME280;44470;53.206;-6.106;2022-12-29T09:02:19;99165.25;;;22.02;45.63
58690;BME280;44470;53.206;-6.106;2022-12-29T09:04:47;99142.69;;;22.06;45.35
58690;BME280;44470;53.206;-6.106;2022-12-29T09:07:13;99139.91;;;21.91;45.40
58690;BME280;44470;53.206;-6.106;2022-12-29T09:09:38;99146.66;;;21.99;45.49
58690;BME280;44470;53.206;-6.106;2022-12-29T09:12:04;99170.84;;;21.97;45.39
58690;BME280;44470;53.206;-6.106;2022-12-29T09:14:30;99148.16;;;22.04;45.43
58690;BME280;44470;53.206;-6.106;2022-12-29T09:16:59;99177.91;;;21.98;45.51
58690;BME280;44470;53.206;-6.106;2022-12-29T09:19:43;99172.09;;;22.08;45.39
58690;BME280;44470;53.206;-6.106;2022-12-29T09:22:14;99208.28;;;21.99;45.41
58690;BME280;44470;53.206;-6.106;2022-12-29T09:24:43;99173.50;;;21.97;45.49
58690;BME280;44470;53.206;-6.106;2022-12-29T09:27:09;99206.53;;;21.98;45.60
58690;BME280;44470;53.206;-6.106;2022-12-29T09:29:34;99184.16;;;21.99;45.39
58690;BME280;44470;53.206;-6.106;2022-12-29T09:31:59;99187.00;;;21.96;45.16
58690;BME280;44470;53.206;-6.106;2022-12-29T09:34:25;99220.94;;;21.95;45.32
58690;BME280;44470;53.206;-6.106;2022-12-29T09:36:57;99233.50;;;21.95;45.74
58690;BME280;44470;53.206;-6.106;2022-12-29T09:39:22;99222.84;;;21.93;45.32
58690;BME280;44470;53.206;-6.106;2022-12-29T09:46:56;99209.84;;;22.03;45.55
58690;BME280;44470;53.206;-6.106;2022-12-29T09:49:36;99218.81;;;22.02;45.25
58690;BME280;44470;53.206;-6.106;2022-12-29T09:52:15;99214.41;;;22.01;45.50
58690;BME280;44470;53.206;-6.106;2022-12-29T09:54:50;99216.47;;;21.96;45.27
58690;BME280;44470;53.206;-6.106;2022-12-29T09:59:59;99209.53;;;21.91;45.70
58690;BME280;44470;53.206;-6.106;2022-12-29T10:02:43;99212.53;;;22.03;45.35
58690;BME280;44470;53.206;-6.106;2022-12-29T10:16:48;99241.53;;;21.95;45.56
58690;BME280;44470;53.206;-6.106;2022-12-29T10:24:32;99248.28;;;22.02;45.29
58690;BME280;44470;53.206;-6.106;2022-12-29T10:27:00;99269.41;;;22.08;45.22
58690;BME280;44470;53.206;-6.106;2022-12-29T10:29:32;99246.00;;;21.94;45.81
58690;BME280;44470;53.206;-6.106;2022-12-29T10:32:04;99236.34;;;21.91;45.75
58690;BME280;44470;53.206;-6.106;2022-12-29T10:34:39;99241.75;;;21.90;45.82
58690;BME280;44470;53.206;-6.106;2022-12-29T10:42:57;99261.53;;;21.87;45.77
58690;BME280;44470;53.206;-6.106;2022-12-29T10:45:27;99268.38;;;21.93;45.53
58690;BME280;44470;53.206;-6.106;2022-12-29T10:48:05;99278.66;;;22.02;45.43
58690;BME280;44470;53.206;-6.106;2022-12-29T10:50:34;99287.44;;;21.87;46.07
58690;BME280;44470;53.206;-6.106;2022-12-29T10:53:02;99289.50;;;21.82;46.06
58690;BME280;44470;53.206;-6.106;2022-12-29T10:55:35;99302.03;;;21.81;46.33
58690;BME280;44470;53.206;-6.106;2022-12-29T10:58:09;99289.34;;;21.67;52.69
58690;BME280;44470;53.206;-6.106;2022-12-29T11:00:36;99312.63;;;21.65;53.90
58690;BME280;44470;53.206;-6.106;2022-12-29T11:03:24;99290.78;;;21.55;55.05
58690;BME280;44470;53.206;-6.106;2022-12-29T11:06:09;99321.88;;;21.58;53.73
58690;BME280;44470;53.206;-6.106;2022-12-29T11:08:57;99294.69;;;21.48;52.58
58690;BME280;44470;53.206;-6.106;2022-12-29T11:11:34;99333.91;;;21.49;52.06
58690;BME280;44470;53.206;-6.106;2022-12-29T11:14:10;99325.25;;;21.44;51.24
58690;BME280;44470;53.206;-6.106;2022-12-29T11:16:37;99323.66;;;21.40;50.92
58690;BME280;44470;53.206;-6.106;2022-12-29T11:19:02;99319.72;;;21.47;50.30
58690;BME280;44470;53.206;-6.106;2022-12-29T11:21:34;99325.81;;;21.51;50.22
58690;BME280;44470;53.206;-6.106;2022-12-29T11:26:53;99323.25;;;21.67;48.90
58690;BME280;44470;53.206;-6.106;2022-12-29T11:29:36;99319.84;;;21.82;48.20
58690;BME280;44470;53.206;-6.106;2022-12-29T11:32:10;99325.56;;;21.92;47.61
58690;BME280;44470;53.206;-6.106;2022-12-29T11:34:36;99334.25;;;21.97;47.40
58690;BME280;44470;53.206;-6.106;2022-12-29T11:37:23;99329.75;;;21.98;47.69
58690;BME280;44470;53.206;-6.106;2022-12-29T11:39:56;99325.25;;;21.98;47.14
58690;BME280;44470;53.206;-6.106;2022-12-29T11:42:35;99333.06;;;22.03;47.15
58690;BME280;44470;53.206;-6.106;2022-12-29T11:45:26;99349.09;;;22.04;46.96
58690;BME280;44470;53.206;-6.106;2022-12-29T11:47:52;99349.78;;;22.08;46.74
58690;BME280;44470;53.206;-6.106;2022-12-29T11:50:21;99373.72;;;22.11;47.06
58690;BME280;44470;53.206;-6.106;2022-12-29T11:52:49;99376.34;;;22.13;46.50
58690;BME280;44470;53.206;-6.106;2022-12-29T11:55:21;99382.81;;;22.09;46.91
58690;BME280;44470;53.206;-6.106;2022-12-29T11:57:51;99375.31;;;22.15;46.80
58690;BME280;44470;53.206;-6.106;2022-12-29T12:00:20;99379.34;;;22.06;46.98
58690;BME280;44470;53.206;-6.106;2022-12-29T12:03:13;99379.88;;;22.13;46.40
58690;BME280;44470;53.206;-6.106;2022-12-29T12:05:54;99386.97;;;22.14;46.52
58690;BME280;44470;53.206;-6.106;2022-12-29T12:10:57;99406.31;;;22.21;46.58
58690;BME280;44470;53.206;-6.106;2022-12-29T12:13:34;99398.56;;;22.15;46.55
58690;BME280;44470;53.206;-6.106;2022-12-29T12:16:21;99398.31;;;22.19;46.04
58690;BME280;44470;53.206;-6.106;2022-12-29T12:18:57;99393.06;;;22.18;46.21
58690;BME280;44470;53.206;-6.106;2022-12-29T12:21:47;99412.81;;;22.15;46.45
58690;BME280;44470;53.206;-6.106;2022-12-29T12:24:29;99400.38;;;22.14;46.26
58690;BME280;44470;53.206;-6.106;2022-12-29T12:29:48;99428.91;;;22.15;46.13
58690;BME280;44470;53.206;-6.106;2022-12-29T12:32:29;99434.09;;;22.18;45.90
58690;BME280;44470;53.206;-6.106;2022-12-29T12:34:59;99465.44;;;21.99;46.50
58690;BME280;44470;53.206;-6.106;2022-12-29T12:49:30;99491.47;;;22.14;46.45
58690;BME280;44470;53.206;-6.106;2022-12-29T12:57:08;99501.88;;;22.20;45.87
58690;BME280;44470;53.206;-6.106;2022-12-29T12:59:51;99493.06;;;22.18;46.08
58690;BME280;44470;53.206;-6.106;2022-12-29T13:02:26;99500.16;;;22.19;46.20
58690;BME280;44470;53.206;-6.106;2022-12-29T13:05:24;99536.03;;;22.17;46.46
58690;BME280;44470;53.206;-6.106;2022-12-29T13:13:52;99517.63;;;22.09;46.51
58690;BME280;44470;53.206;-6.106;2022-12-29T13:19:20;99541.53;;;21.95;46.79
58690;BME280;44470;53.206;-6.106;2022-12-29T13:22:05;99545.66;;;22.02;46.61
58690;BME280;44470;53.206;-6.106;2022-12-29T13:29:40;99556.81;;;22.12;46.43
58690;BME280;44470;53.206;-6.106;2022-12-29T13:32:57;99546.59;;;22.01;46.62
58690;BME280;44470;53.206;-6.106;2022-12-29T13:38:29;99562.53;;;22.04;46.69
58690;BME280;44470;53.206;-6.106;2022-12-29T13:41:01;99553.75;;;22.00;46.56
58690;BME280;44470;53.206;-6.106;2022-12-29T13:49:58;99566.34;;;22.17;46.22
58690;BME280;44470;53.206;-6.106;2022-12-29T13:52:32;99580.06;;;22.11;46.26
58690;BME280;44470;53.206;-6.106;2022-12-29T14:01:03;99606.63;;;21.97;46.56
58690;BME280;44470;53.206;-6.106;2022-12-29T14:03:52;99609.31;;;22.16;46.23
58690;BME280;44470;53.206;-6.106;2022-12-29T14:06:23;99599.69;;;22.12;46.03
58690;BME280;44470;53.206;-6.106;2022-12-29T14:08:53;99621.41;;;22.25;45.96
58690;BME280;44470;53.206;-6.106;2022-12-29T14:11:28;99634.94;;;22.21;45.91
58690;BME280;44470;53.206;-6.106;2022-12-29T14:13:55;99623.13;;;22.26;45.99
58690;BME280;44470;53.206;-6.106;2022-12-29T14:16:32;99628.09;;;22.16;46.06
58690;BME280;44470;53.206;-6.106;2022-12-29T14:19:11;99630.53;;;22.20;45.99
58690;BME280;44470;53.206;-6.106;2022-12-29T14:21:38;99614.22;;;22.06;46.16
58690;BME280;44470;53.206;-6.106;2022-12-29T14:26:52;99619.94;;;22.17;45.88
58690;BME280;44470;53.206;-6.106;2022-12-29T14:31:50;99616.47;;;22.15;45.99
58690;BME280;44470;53.206;-6.106;2022-12-29T14:34:25;99627.94;;;22.19;45.90
58690;BME280;44470;53.206;-6.106;2022-12-29T14:39:37;99623.28;;;22.23;46.04
58690;BME280;44470;53.206;-6.106;2022-12-29T14:42:12;99622.13;;;22.28;45.82
58690;BME280;44470;53.206;-6.106;2022-12-29T14:47:19;99637.41;;;22.26;45.75
58690;BME280;44470;53.206;-6.106;2022-12-29T14:49:45;99635.59;;;22.27;46.05
58690;BME280;44470;53.206;-6.106;2022-12-29T14:52:19;99645.66;;;22.21;45.79
58690;BME280;44470;53.206;-6.106;2022-12-29T14:54:57;99641.38;;;22.17;45.94
58690;BME280;44470;53.206;-6.106;2022-12-29T14:57:27;99646.59;;;22.20;45.94
58690;BME280;44470;53.206;-6.106;2022-12-29T14:59:57;99639.09;;;22.10;45.99
58690;BME280;44470;53.206;-6.106;2022-12-29T15:02:26;99650.31;;;22.18;45.79
58690;BME280;44470;53.206;-6.106;2022-12-29T15:04:59;99653.94;;;22.17;46.11
58690;BME280;44470;53.206;-6.106;2022-12-29T15:07:27;99648.34;;;22.21;45.70
58690;BME280;44470;53.206;-6.106;2022-12-29T15:09:59;99644.00;;;22.19;45.52
58690;BME280;44470;53.206;-6.106;2022-12-29T15:12:41;99644.06;;;22.17;46.00
58690;BME280;44470;53.206;-6.106;2022-12-29T15:17:44;99639.66;;;22.16;46.18
58690;BME280;44470;53.206;-6.106;2022-12-29T15:20:28;99642.00;;;22.24;45.80
58690;BME280;44470;53.206;-6.106;2022-12-29T15:23:17;99648.34;;;22.21;46.14
58690;BME280;44470;53.206;-6.106;2022-12-29T15:26:03;99655.28;;;22.26;45.67
58690;BME280;44470;53.206;-6.106;2022-12-29T15:28:44;99662.41;;;22.27;45.91
58690;BME280;44470;53.206;-6.106;2022-12-29T15:31:16;99668.34;;;22.33;45.52
58690;BME280;44470;53.206;-6.106;2022-12-29T15:33:45;99671.53;;;22.23;45.58
58690;BME280;44470;53.206;-6.106;2022-12-29T15:36:27;99688.28;;;22.28;45.66